Time;durP1;ratioP1;P1;durP2;ratioP2;P2;SDS_P1;SDS_P2;PMS_P1;PMS_P2;Temp;Humidity;BMP_temperature;BMP_pressure;BME280_temperature;BME280_humidity;BME280_pressure;Samples;Min_cycle;Max_cycle;Signal;HPM_P1;HPM_P2
2023/04/18 00:01:15;;;;;;;11.52;2.40;;;13.60;99.70;;;;;;7397860;19;19926;-71
2023/04/18 00:03:40;;;;;;;11.65;2.28;;;13.60;99.70;;;;;;7400310;19;19926;-71
2023/04/18 00:06:06;;;;;;;11.15;2.25;;;13.60;99.80;;;;;;7366520;19;19958;-71
2023/04/18 00:08:32;;;;;;;7.82;2.13;;;13.60;99.90;;;;;;7398830;19;19939;-72
2023/04/18 00:10:58;;;;;;;11.02;2.20;;;13.50;99.90;;;;;;7397704;19;19928;-71
2023/04/18 00:13:27;;;;;;;9.55;1.90;;;13.50;99.90;;;;;;7398200;19;19966;-70
2023/04/18 00:15:54;;;;;;;8.38;2.00;;;13.50;99.90;;;;;;7399635;19;19923;-71
2023/04/18 00:18:20;;;;;;;7.50;1.75;;;13.60;99.90;;;;;;7398144;19;20553;-71
2023/04/18 00:20:45;;;;;;;10.98;2.40;;;13.50;99.90;;;;;;7399630;19;20317;-71
2023/04/18 00:23:12;;;;;;;14.30;2.25;;;13.60;99.90;;;;;;7396084;19;19923;-71
2023/04/18 00:25:38;;;;;;;;;;;13.60;99.90;;;;;;7400498;19;19966;-71
2023/04/18 00:28:04;;;;;;;8.43;2.00;;;13.60;99.90;;;;;;7397277;19;19919;-71
2023/04/18 00:30:30;;;;;;;9.00;2.15;;;13.70;99.90;;;;;;7399287;19;19922;-71
2023/04/18 00:32:56;;;;;;;10.32;2.53;;;13.70;99.90;;;;;;7398252;19;20331;-70
2023/04/18 00:35:21;;;;;;;5.38;1.63;;;13.70;99.90;;;;;;7394085;19;20985;-71
2023/04/18 00:37:47;;;;;;;10.52;1.80;;;13.70;99.90;;;;;;7398738;19;19915;-70
2023/04/18 00:40:13;;;;;;;9.00;2.35;;;13.60;99.90;;;;;;7394424;19;21808;-72
2023/04/18 00:42:39;;;;;;;8.00;1.92;;;13.60;99.90;;;;;;7398164;19;20838;-71
2023/04/18 00:45:05;;;;;;;9.60;2.47;;;13.70;99.90;;;;;;7401820;19;19946;-71
2023/04/18 00:47:31;;;;;;;5.72;2.17;;;13.60;99.90;;;;;;7402356;19;19932;-70
2023/04/18 00:49:58;;;;;;;7.85;2.10;;;13.60;99.90;;;;;;7402044;19;19911;-70
2023/04/18 00:52:26;;;;;;;8.65;2.38;;;13.60;99.90;;;;;;7400802;19;20030;-71
2023/04/18 00:54:51;;;;;;;13.50;2.45;;;13.60;99.90;;;;;;7399987;19;19922;-71
2023/04/18 00:57:17;;;;;;;6.45;1.75;;;13.60;99.90;;;;;;7399613;19;19921;-71
2023/04/18 00:59:46;;;;;;;8.52;2.05;;;13.60;99.90;;;;;;7401518;19;19935;-72
2023/04/18 01:02:11;;;;;;;7.18;1.75;;;13.60;99.90;;;;;;7394264;19;19938;-72
2023/04/18 01:04:37;;;;;;;8.48;1.95;;;13.60;99.90;;;;;;7402597;19;19946;-70
2023/04/18 01:07:03;;;;;;;9.98;2.33;;;13.60;99.90;;;;;;7375111;19;19918;-71
2023/04/18 01:09:29;;;;;;;8.80;2.15;;;13.60;99.90;;;;;;7398029;19;19974;-71
2023/04/18 01:11:55;;;;;;;9.23;1.92;;;13.50;99.90;;;;;;7401883;19;20268;-71
2023/04/18 01:14:22;;;;;;;8.80;1.88;;;13.50;99.90;;;;;;7402997;19;19922;-72
2023/04/18 01:16:47;;;;;;;9.65;1.60;;;13.40;99.90;;;;;;7400486;19;20430;-71
2023/04/18 01:19:16;;;;;;;5.95;1.58;;;13.40;99.90;;;;;;7396708;19;19999;-70
2023/04/18 01:21:42;;;;;;;8.52;2.13;;;13.40;99.90;;;;;;7397533;19;19925;-70
2023/04/18 01:24:14;;;;;;;10.27;1.60;;;13.40;99.90;;;;;;7399065;19;19978;-70
2023/04/18 01:26:42;;;;;;;13.48;2.25;;;13.40;99.90;;;;;;7399668;19;20395;-71
2023/04/18 01:29:09;;;;;;;8.68;2.40;;;13.40;99.90;;;;;;7396435;19;19917;-70
2023/04/18 01:31:36;;;;;;;8.90;1.58;;;13.30;99.90;;;;;;7403280;19;19942;-71
2023/04/18 01:34:02;;;;;;;6.97;1.48;;;13.30;99.90;;;;;;7401973;19;19942;-71
2023/04/18 01:36:28;;;;;;;8.77;2.50;;;13.30;99.90;;;;;;7402259;19;19918;-72
2023/04/18 01:38:54;;;;;;;8.20;1.90;;;13.30;99.90;;;;;;7404117;19;19907;-71
2023/04/18 01:41:20;;;;;;;7.03;1.55;;;13.20;99.90;;;;;;7402406;19;20347;-71
2023/04/18 01:43:46;;;;;;;7.45;1.83;;;13.20;99.90;;;;;;7402211;19;19921;-71
2023/04/18 01:46:11;;;;;;;8.90;1.80;;;13.20;99.90;;;;;;7400816;19;19918;-70
2023/04/18 01:48:37;;;;;;;7.65;2.13;;;13.20;99.90;;;;;;7402952;19;20248;-71
2023/04/18 01:51:03;;;;;;;9.38;1.83;;;13.20;99.90;;;;;;7400428;19;19938;-71
2023/04/18 01:53:30;;;;;;;8.98;1.58;;;13.10;99.90;;;;;;7401530;19;19926;-71
2023/04/18 01:55:57;;;;;;;6.30;1.60;;;13.10;99.90;;;;;;7402630;19;19922;-70
2023/04/18 01:58:24;;;;;;;11.55;2.30;;;13.10;99.90;;;;;;7402418;19;20255;-71
2023/04/18 02:00:53;;;;;;;8.35;1.77;;;13.20;99.90;;;;;;7401634;19;19911;-71
2023/04/18 02:03:20;;;;;;;5.55;1.50;;;13.20;99.90;;;;;;7399976;19;19922;-71
2023/04/18 02:05:46;;;;;;;8.10;2.38;;;13.20;99.90;;;;;;7402275;19;20339;-70
2023/04/18 02:08:12;;;;;;;6.38;1.40;;;13.20;99.90;;;;;;7401313;19;19922;-70
2023/04/18 02:10:39;;;;;;;9.32;1.65;;;13.20;99.90;;;;;;7403361;19;19919;-71
2023/04/18 02:13:05;;;;;;;9.43;1.60;;;13.20;99.90;;;;;;7398799;19;19919;-71
2023/04/18 02:15:32;;;;;;;5.75;1.42;;;13.20;99.90;;;;;;7402159;19;19914;-71
2023/04/18 02:18:01;;;;;;;7.47;1.67;;;13.20;99.90;;;;;;7402047;19;19943;-70
2023/04/18 02:20:30;;;;;;;6.53;1.50;;;13.20;99.90;;;;;;7400747;19;19970;-71
2023/04/18 02:22:59;;;;;;;6.25;1.50;;;13.20;99.90;;;;;;7402707;19;19915;-70
2023/04/18 02:25:28;;;;;;;9.45;1.65;;;13.20;99.90;;;;;;7400072;19;19940;-70
2023/04/18 02:27:55;;;;;;;6.22;1.55;;;13.20;99.90;;;;;;7400291;19;19926;-71
2023/04/18 02:30:22;;;;;;;7.18;1.30;;;13.20;99.80;;;;;;7399068;19;19959;-71
2023/04/18 02:32:57;;;;;;;6.53;1.38;;;13.20;99.60;;;;;;7402633;19;19922;-71
2023/04/18 02:35:24;;;;;;;9.18;1.65;;;13.20;99.20;;;;;;7398423;19;19941;-70
2023/04/18 02:37:49;;;;;;;5.93;1.27;;;13.30;99.00;;;;;;7401679;19;19914;-72
2023/04/18 02:40:15;;;;;;;7.80;1.60;;;13.40;98.60;;;;;;7400078;19;19918;-71
2023/04/18 02:42:41;;;;;;;8.93;1.50;;;13.40;98.50;;;;;;7401078;19;19922;-71
2023/04/18 02:45:07;;;;;;;5.55;1.48;;;13.40;98.20;;;;;;7399328;19;19918;-71
2023/04/18 02:47:33;;;;;;;5.95;1.58;;;13.40;97.90;;;;;;7401992;19;19919;-72
2023/04/18 02:49:59;;;;;;;7.38;1.92;;;13.50;97.80;;;;;;7402300;19;20799;-71
2023/04/18 02:52:25;;;;;;;5.00;1.08;;;13.50;97.30;;;;;;7363903;19;19903;-71
2023/04/18 02:54:51;;;;;;;7.28;1.40;;;13.50;96.90;;;;;;7399217;19;19911;-70
2023/04/18 02:57:17;;;;;;;7.65;1.67;;;13.50;96.80;;;;;;7399539;19;19945;-70
2023/04/18 02:59:42;;;;;;;13.20;1.95;;;13.50;96.80;;;;;;7394861;19;19986;-71
2023/04/18 03:02:08;;;;;;;6.50;1.30;;;13.50;96.70;;;;;;7396437;19;19986;-71
2023/04/18 03:04:34;;;;;;;7.80;1.23;;;13.50;96.60;;;;;;7398982;19;19927;-71
2023/04/18 03:07:00;;;;;;;7.13;1.50;;;13.60;96.20;;;;;;7395955;19;19914;-70
2023/04/18 03:09:26;;;;;;;7.57;1.33;;;13.50;96.40;;;;;;7398813;19;20019;-70
2023/04/18 03:11:51;;;;;;;8.40;1.65;;;13.50;96.40;;;;;;7398671;19;20487;-70
2023/04/18 03:14:17;;;;;;;10.50;1.70;;;13.50;96.40;;;;;;7400857;19;19903;-71
2023/04/18 03:16:43;;;;;;;5.40;1.30;;;13.50;96.30;;;;;;7401468;19;19914;-72
2023/04/18 03:19:09;;;;;;;10.80;1.73;;;13.50;96.10;;;;;;7397026;19;20040;-71
2023/04/18 03:21:35;;;;;;;4.63;1.13;;;13.50;96.10;;;;;;7400591;19;19922;-71
2023/04/18 03:24:01;;;;;;;5.60;1.10;;;13.50;95.70;;;;;;7400203;19;19925;-70
2023/04/18 03:26:27;;;;;;;6.93;1.40;;;13.50;95.70;;;;;;7397287;19;19930;-71
2023/04/18 03:28:53;;;;;;;5.80;1.25;;;13.60;95.80;;;;;;7398364;19;19939;-71
2023/04/18 03:31:19;;;;;;;6.43;1.77;;;13.50;95.60;;;;;;7397261;19;20300;-70
2023/04/18 03:33:45;;;;;;;7.00;1.30;;;13.60;95.60;;;;;;7398958;19;20257;-71
2023/04/18 03:36:16;;;;;;;5.60;1.30;;;13.50;95.30;;;;;;7398318;19;19930;-71
2023/04/18 03:38:41;;;;;;;9.90;2.00;;;13.60;95.20;;;;;;7399577;19;20318;-70
2023/04/18 03:41:07;;;;;;;4.97;1.30;;;13.60;95.30;;;;;;7400095;19;19952;-71
2023/04/18 03:43:33;;;;;;;7.47;1.83;;;13.60;95.40;;;;;;7393300;19;19978;-70
2023/04/18 03:45:59;;;;;;;9.35;1.70;;;13.70;95.50;;;;;;7396492;19;19915;-71
2023/04/18 03:48:25;;;;;;;6.88;1.42;;;13.70;95.70;;;;;;7396280;19;19998;-70
2023/04/18 03:50:50;;;;;;;6.43;1.77;;;13.70;95.70;;;;;;7398020;19;19925;-71
2023/04/18 03:53:16;;;;;;;5.03;1.35;;;13.80;95.10;;;;;;7393721;19;19910;-70
2023/04/18 03:55:42;;;;;;;9.68;1.70;;;13.80;95.20;;;;;;7397761;19;19930;-70
2023/04/18 03:58:08;;;;;;;3.65;1.20;;;13.80;95.30;;;;;;7398705;19;20344;-71
2023/04/18 04:00:34;;;;;;;6.40;1.60;;;13.80;95.30;;;;;;7396284;19;19918;-71
2023/04/18 04:03:00;;;;;;;7.28;2.78;;;13.90;95.10;;;;;;7398719;19;20388;-71
2023/04/18 04:05:26;;;;;;;7.47;1.80;;;13.80;95.10;;;;;;7398593;19;19922;-71
2023/04/18 04:07:52;;;;;;;7.18;1.67;;;13.80;95.00;;;;;;7397862;19;19919;-70
2023/04/18 04:10:18;;;;;;;8.18;1.92;;;13.90;94.80;;;;;;7397316;19;19932;-70
2023/04/18 04:12:43;;;;;;;5.90;1.60;;;13.90;94.50;;;;;;7397776;19;20253;-71
2023/04/18 04:15:10;;;;;;;3.95;1.58;;;13.90;94.50;;;;;;7397161;19;19990;-70
2023/04/18 04:17:35;;;;;;;5.45;1.52;;;13.90;94.50;;;;;;7402325;19;20006;-70
2023/04/18 04:20:02;;;;;;;5.47;1.40;;;14.00;93.40;;;;;;7405319;19;20517;-70
2023/04/18 04:22:28;;;;;;;5.57;1.38;;;14.00;93.50;;;;;;7404164;19;19918;-71
2023/04/18 04:24:56;;;;;;;7.53;2.10;;;14.00;92.80;;;;;;7401990;19;19915;-72
2023/04/18 04:27:23;;;;;;;7.57;1.80;;;14.00;93.50;;;;;;7400965;19;19926;-71
2023/04/18 04:29:51;;;;;;;8.65;1.90;;;14.00;94.30;;;;;;7401192;19;19918;-70
2023/04/18 04:32:17;;;;;;;6.40;2.00;;;14.00;94.80;;;;;;7403860;19;19922;-71
2023/04/18 04:34:45;;;;;;;7.70;1.70;;;13.90;95.00;;;;;;7406844;19;20247;-71
2023/04/18 04:37:12;;;;;;;6.05;2.05;;;13.90;95.10;;;;;;7401915;19;19907;-70
2023/04/18 04:39:38;;;;;;;7.00;2.20;;;13.90;95.30;;;;;;7406050;19;20343;-71
2023/04/18 04:42:04;;;;;;;8.93;2.03;;;13.80;95.40;;;;;;7404698;19;19921;-72
2023/04/18 04:44:30;;;;;;;7.53;1.90;;;13.90;95.70;;;;;;7404208;19;20383;-71
2023/04/18 04:46:56;;;;;;;7.78;2.00;;;13.80;95.70;;;;;;7404025;19;19960;-71
2023/04/18 04:49:22;;;;;;;8.43;1.90;;;13.80;95.80;;;;;;7402044;19;24296;-71
2023/04/18 04:51:48;;;;;;;9.02;1.85;;;13.70;95.90;;;;;;7404845;19;19942;-71
2023/04/18 04:54:14;;;;;;;12.55;2.40;;;13.70;96.00;;;;;;7402024;19;19919;-70
2023/04/18 04:56:40;;;;;;;8.40;1.88;;;13.60;96.10;;;;;;7383066;19;19918;-71
2023/04/18 04:59:06;;;;;;;7.57;1.92;;;13.60;96.30;;;;;;7399401;19;19921;-71
2023/04/18 05:01:32;;;;;;;9.93;2.10;;;13.50;96.50;;;;;;7404765;19;19915;-71
2023/04/18 05:03:57;;;;;;;9.35;1.80;;;13.40;96.70;;;;;;7403560;19;19926;-71
2023/04/18 05:06:23;;;;;;;6.03;2.08;;;13.40;96.90;;;;;;7403054;19;19926;-71
2023/04/18 05:08:49;;;;;;;9.70;2.17;;;13.40;97.30;;;;;;7404454;19;20178;-71
2023/04/18 05:11:16;;;;;;;14.52;2.17;;;13.40;97.40;;;;;;7404219;19;19925;-71
2023/04/18 05:13:42;;;;;;;7.85;2.30;;;13.30;97.60;;;;;;7404284;19;19915;-74
2023/04/18 05:16:08;;;;;;;12.20;1.90;;;13.30;97.50;;;;;;7401824;19;19922;-72
2023/04/18 05:18:36;;;;;;;12.35;2.50;;;13.30;97.60;;;;;;7405165;19;19910;-70
2023/04/18 05:21:02;;;;;;;7.28;1.98;;;13.30;97.60;;;;;;7402901;19;19953;-72
2023/04/18 05:23:27;;;;;;;7.60;2.30;;;13.30;97.60;;;;;;7401469;19;20247;-71
2023/04/18 05:25:53;;;;;;;8.98;2.35;;;13.30;97.60;;;;;;7404809;19;19930;-71
2023/04/18 05:28:19;;;;;;;6.68;2.00;;;13.40;97.40;;;;;;7398714;19;19919;-72
2023/04/18 05:30:45;;;;;;;6.18;2.03;;;13.50;97.40;;;;;;7402955;19;20445;-71
2023/04/18 05:33:10;;;;;;;9.73;2.53;;;13.50;97.30;;;;;;7400698;19;19910;-71
2023/04/18 05:35:36;;;;;;;11.88;2.30;;;13.60;97.40;;;;;;7404868;19;19915;-70
2023/04/18 05:38:02;;;;;;;12.02;2.50;;;13.70;97.50;;;;;;7402504;19;19950;-71
2023/04/18 05:40:28;;;;;;;9.38;2.50;;;13.80;97.20;;;;;;7400133;19;19911;-71
2023/04/18 05:42:54;;;;;;;12.18;2.50;;;13.80;97.20;;;;;;7402809;19;20271;-71
2023/04/18 05:45:20;;;;;;;10.40;2.33;;;13.80;97.00;;;;;;7400747;19;19923;-73
2023/04/18 05:47:46;;;;;;;9.43;3.00;;;13.90;96.90;;;;;;7400935;19;20322;-72
2023/04/18 05:50:11;;;;;;;6.97;2.00;;;13.90;96.80;;;;;;7403166;19;19934;-72
2023/04/18 05:52:37;;;;;;;8.15;1.80;;;13.90;96.40;;;;;;7401826;19;20588;-74
2023/04/18 05:55:04;;;;;;;10.57;2.00;;;13.90;96.60;;;;;;7402876;19;20378;-71
2023/04/18 05:57:30;;;;;;;;;;;14.00;96.70;;;;;;7404717;19;19977;-71
2023/04/18 05:59:57;;;;;;;7.03;1.80;;;14.00;96.80;;;;;;7401310;19;19949;-72
2023/04/18 06:02:23;;;;;;;9.07;1.80;;;14.00;97.20;;;;;;7402775;19;19922;-72
2023/04/18 06:04:50;;;;;;;10.85;1.70;;;14.00;97.50;;;;;;7369694;19;19918;-70
2023/04/18 06:07:16;;;;;;;9.43;2.03;;;14.10;97.40;;;;;;7402549;19;19921;-70
2023/04/18 06:09:41;;;;;;;8.57;1.92;;;14.10;97.10;;;;;;7401855;19;19978;-71
2023/04/18 06:12:07;;;;;;;5.28;1.63;;;14.10;96.50;;;;;;7399168;19;19918;-70
2023/04/18 06:14:33;;;;;;;6.15;1.70;;;14.10;95.70;;;;;;7403627;19;19922;-71
2023/04/18 06:16:59;;;;;;;5.07;1.42;;;14.20;95.20;;;;;;7402787;19;19922;-71
2023/04/18 06:19:24;;;;;;;8.43;2.08;;;14.30;94.00;;;;;;7402164;19;19918;-70
2023/04/18 06:21:51;;;;;;;9.93;1.52;;;14.40;92.80;;;;;;7401140;19;19911;-71
2023/04/18 06:24:17;;;;;;;;;;;14.40;93.40;;;;;;7400872;19;19926;-70
2023/04/18 06:26:43;;;;;;;9.18;1.88;;;14.50;92.40;;;;;;7402039;19;20331;-71
2023/04/18 06:29:09;;;;;;;7.78;1.60;;;14.50;92.10;;;;;;7400177;19;19918;-72
2023/04/18 06:31:35;;;;;;;8.85;1.55;;;14.70;91.70;;;;;;7397589;19;19942;-72
2023/04/18 06:34:00;;;;;;;9.07;1.77;;;14.70;90.90;;;;;;7399510;19;20666;-71
2023/04/18 06:36:26;;;;;;;4.53;1.40;;;14.80;91.00;;;;;;7399457;19;19919;-71
2023/04/18 06:38:52;;;;;;;5.07;1.70;;;14.90;90.50;;;;;;7401701;19;20876;-72
2023/04/18 06:41:18;;;;;;;9.18;2.63;;;14.90;89.90;;;;;;7396670;19;19923;-71
2023/04/18 06:43:43;;;;;;;6.40;1.83;;;15.00;90.20;;;;;;7393921;19;19911;-71
2023/04/18 06:46:09;;;;;;;7.93;2.10;;;15.00;89.80;;;;;;7387963;19;19926;-71
2023/04/18 06:48:35;;;;;;;6.88;1.50;;;15.00;89.80;;;;;;7399894;19;19925;-72
2023/04/18 06:51:00;;;;;;;6.65;1.75;;;15.00;89.30;;;;;;7397271;19;19919;-72
2023/04/18 06:53:26;;;;;;;5.68;1.67;;;15.00;88.00;;;;;;7398455;19;19926;-71
2023/04/18 06:55:52;;;;;;;10.35;1.90;;;15.00;87.90;;;;;;7398382;19;20360;-72
2023/04/18 06:58:18;;;;;;;7.10;2.17;;;15.10;88.20;;;;;;7392379;19;19921;-72
2023/04/18 07:00:47;;;;;;;6.03;1.83;;;15.20;87.20;;;;;;7386602;19;19922;-70
2023/04/18 07:03:13;;;;;;;7.15;1.90;;;15.20;87.70;;;;;;7384523;19;19929;-72
2023/04/18 07:05:39;;;;;;;7.28;2.25;;;15.20;87.10;;;;;;7399830;19;19926;-71
2023/04/18 07:08:05;;;;;;;4.03;1.13;;;15.30;87.10;;;;;;7393736;19;20349;-71
2023/04/18 07:10:31;;;;;;;6.88;1.55;;;15.30;85.30;;;;;;7389547;19;19906;-72
2023/04/18 07:12:56;;;;;;;5.22;1.65;;;15.40;86.10;;;;;;7393554;19;20341;-72
2023/04/18 07:15:22;;;;;;;7.65;2.22;;;15.30;87.30;;;;;;7388166;19;19993;-71
2023/04/18 07:17:48;;;;;;;6.22;1.80;;;15.30;87.90;;;;;;7393267;19;19923;-76
2023/04/18 07:20:14;;;;;;;9.32;2.13;;;15.40;86.60;;;;;;7368137;19;19918;-72
2023/04/18 07:22:40;;;;;;;8.77;1.90;;;15.40;86.40;;;;;;7371977;19;19930;-73
2023/04/18 07:25:07;;;;;;;5.45;2.05;;;15.30;84.50;;;;;;7385147;19;20375;-72
2023/04/18 07:27:35;;;;;;;7.15;2.00;;;15.40;84.40;;;;;;7394022;19;19915;-71
2023/04/18 07:30:01;;;;;;;6.20;1.80;;;15.30;85.90;;;;;;7397428;19;20858;-72
2023/04/18 07:32:27;;;;;;;6.63;1.75;;;15.30;86.90;;;;;;7388003;19;19917;-71
2023/04/18 07:34:52;;;;;;;8.70;2.35;;;15.40;87.10;;;;;;7394907;19;20339;-71
2023/04/18 07:37:20;;;;;;;9.07;2.00;;;15.50;87.20;;;;;;7387771;19;19933;-71
2023/04/18 07:39:47;;;;;;;12.55;3.05;;;15.40;87.00;;;;;;7388094;19;19915;-71
2023/04/18 07:42:12;;;;;;;11.43;2.72;;;15.30;87.20;;;;;;7364798;19;19974;-73
2023/04/18 07:44:38;;;;;;;10.02;2.85;;;15.50;86.60;;;;;;7384309;19;19978;-72
2023/04/18 07:47:09;;;;;;;9.70;2.28;;;15.50;85.50;;;;;;7378563;19;19918;-71
2023/04/18 07:49:35;;;;;;;9.20;2.60;;;15.60;84.40;;;;;;7382415;19;19914;-71
2023/04/18 07:52:01;;;;;;;7.70;2.70;;;15.60;84.80;;;;;;7413430;19;19910;-79
2023/04/18 07:54:27;;;;;;;10.07;2.50;;;15.90;84.60;;;;;;7429070;19;19958;-80
2023/04/18 07:56:53;;;;;;;4.95;1.90;;;16.20;81.80;;;;;;7423788;19;19946;-79
2023/04/18 07:59:19;;;;;;;4.47;1.52;;;16.20;79.30;;;;;;7428004;19;19944;-81
2023/04/18 08:01:44;;;;;;;4.57;1.58;;;16.40;76.40;;;;;;7430471;19;19914;-80
2023/04/18 08:04:11;;;;;;;4.35;1.85;;;16.30;75.30;;;;;;7426335;19;19918;-79
2023/04/18 08:06:37;;;;;;;4.55;1.58;;;16.20;75.30;;;;;;7424974;19;20343;-78
2023/04/18 08:09:04;;;;;;;5.18;1.60;;;16.40;74.20;;;;;;7428242;19;19919;-79
2023/04/18 08:11:31;;;;;;;6.38;2.00;;;16.70;73.10;;;;;;7431506;19;19922;-81
2023/04/18 08:13:57;;;;;;;8.13;2.05;;;17.00;72.20;;;;;;7433317;19;19918;-80
2023/04/18 08:16:23;;;;;;;6.05;1.90;;;17.10;70.20;;;;;;7429637;19;19929;-80
2023/04/18 08:18:49;;;;;;;4.13;1.88;;;16.90;69.30;;;;;;7431928;19;20347;-80
2023/04/18 08:21:14;;;;;;;3.75;1.52;;;16.90;67.30;;;;;;7431933;19;19914;-81
2023/04/18 08:23:40;;;;;;;7.72;1.73;;;17.50;68.90;;;;;;7434475;19;19918;-80
2023/04/18 08:26:06;;;;;;;5.78;1.85;;;16.90;67.50;;;;;;7426841;19;19918;-80
2023/04/18 08:28:32;;;;;;;5.00;1.60;;;16.90;67.90;;;;;;7426855;19;19918;-80
2023/04/18 08:30:57;;;;;;;4.07;1.60;;;17.00;68.70;;;;;;7406603;19;19937;-80
2023/04/18 08:33:23;;;;;;;6.15;2.15;;;17.00;65.90;;;;;;7427566;19;19938;-80
2023/04/18 08:35:53;;;;;;;5.40;2.00;;;16.80;68.10;;;;;;7429139;19;19955;-80
2023/04/18 08:38:19;;;;;;;4.63;1.70;;;17.20;67.40;;;;;;7424540;19;19985;-80
2023/04/18 08:40:45;;;;;;;5.80;2.15;;;17.40;66.80;;;;;;7430976;19;20596;-79
2023/04/18 08:43:15;;;;;;;5.15;2.03;;;18.20;65.20;;;;;;7428740;19;19954;-80
2023/04/18 08:45:42;;;;;;;5.25;2.30;;;18.80;65.00;;;;;;7432522;19;19930;-80
2023/04/18 08:48:15;;;;;;;7.13;2.10;;;19.00;64.30;;;;;;7430060;19;19914;-81
2023/04/18 08:50:42;;;;;;;7.72;2.45;;;19.00;64.30;;;;;;7429466;19;20021;-81
2023/04/18 08:53:10;;;;;;;5.32;2.58;;;20.50;62.50;;;;;;7404627;19;19911;-80
2023/04/18 08:55:37;;;;;;;8.40;2.58;;;21.10;61.10;;;;;;7426273;19;19921;-80
2023/04/18 08:58:06;;;;;;;6.00;2.63;;;22.40;59.80;;;;;;7425541;19;19922;-79
2023/04/18 09:00:31;;;;;;;8.40;2.65;;;20.80;58.60;;;;;;7426212;19;19939;-80
2023/04/18 09:03:02;;;;;;;10.02;2.67;;;20.10;61.10;;;;;;7430201;19;19914;-80
2023/04/18 09:05:28;;;;;;;8.80;3.25;;;20.90;60.70;;;;;;7419227;19;19919;-79
2023/04/18 09:07:55;;;;;;;16.75;3.50;;;21.50;60.70;;;;;;7424502;19;19926;-80
2023/04/18 09:10:32;;;;;;;7.70;2.80;;;23.20;57.60;;;;;;7423321;19;19931;-80
2023/04/18 09:13:01;;;;;;;8.57;2.63;;;23.20;55.90;;;;;;7422829;19;19917;-80
2023/04/18 09:15:28;;;;;;;11.00;2.72;;;21.50;57.50;;;;;;7417831;19;19921;-80
2023/04/18 09:17:58;;;;;;;;;;;21.70;57.90;;;;;;7423137;19;19915;-80
2023/04/18 09:20:40;;;;;;;7.70;2.45;;;22.80;57.10;;;;;;7421053;19;19918;-81
2023/04/18 09:23:13;;;;;;;7.20;2.63;;;23.10;56.50;;;;;;7420518;19;19938;-81
2023/04/18 09:25:46;;;;;;;9.65;2.17;;;22.30;57.40;;;;;;7414802;19;19930;-80
2023/04/18 09:28:27;;;;;;;8.85;2.78;;;20.80;59.00;;;;;;7417745;19;19922;-81
2023/04/18 09:30:57;;;;;;;11.20;3.47;;;20.20;61.30;;;;;;7423513;19;19918;-82
2023/04/18 09:33:33;;;;;;;6.47;2.58;;;21.80;60.10;;;;;;7422087;19;19919;-82
2023/04/18 09:36:21;;;;;;;6.63;2.47;;;20.50;58.70;;;;;;7417324;19;19935;-81
2023/04/18 09:38:49;;;;;;;7.25;2.72;;;19.60;60.00;;;;;;7421064;19;19918;-81
2023/04/18 09:41:16;;;;;;;4.93;2.53;;;18.90;63.10;;;;;;7420206;19;19935;-80
2023/04/18 09:43:44;;;;;;;6.30;2.70;;;18.80;64.10;;;;;;7422583;19;20323;-80
2023/04/18 09:46:11;;;;;;;7.40;2.10;;;18.60;64.50;;;;;;7422153;19;19938;-81
2023/04/18 09:48:38;;;;;;;10.15;2.13;;;18.50;64.80;;;;;;7420389;19;19918;-81
2023/04/18 09:51:09;;;;;;;6.72;2.33;;;18.50;64.80;;;;;;7418747;19;19913;-81
2023/04/18 09:53:40;;;;;;;7.63;2.58;;;18.70;64.80;;;;;;7419957;19;19966;-81
2023/04/18 09:56:18;;;;;;;7.70;2.83;;;18.50;65.50;;;;;;7391618;19;19940;-81
2023/04/18 09:58:50;;;;;;;6.88;2.30;;;19.10;64.90;;;;;;7404660;19;19926;-81
2023/04/18 10:01:16;;;;;;;;;;;19.40;64.40;;;;;;7421120;19;19907;-81
2023/04/18 10:03:47;;;;;;;6.15;2.00;;;19.40;63.30;;;;;;7420246;19;19982;-81
2023/04/18 10:06:15;;;;;;;6.57;2.28;;;20.60;62.80;;;;;;7418652;19;19944;-82
2023/04/18 10:08:43;;;;;;;8.45;2.63;;;21.00;61.90;;;;;;7417219;19;19918;-81
2023/04/18 10:11:09;;;;;;;5.25;2.08;;;19.80;62.80;;;;;;7415217;19;19955;-82
2023/04/18 10:13:38;;;;;;;6.03;2.00;;;19.50;64.10;;;;;;7422081;19;19921;-81
2023/04/18 10:16:05;;;;;;;8.30;3.13;;;19.50;61.80;;;;;;7415420;19;20311;-77
2023/04/18 10:18:31;;;;;;;7.72;2.20;;;19.00;62.00;;;;;;7379395;19;19907;-72
2023/04/18 10:21:03;;;;;;;6.40;1.88;;;18.30;63.70;;;;;;7398266;19;19933;-72
2023/04/18 10:23:33;;;;;;;6.75;2.25;;;18.80;64.00;;;;;;7400311;19;19931;-71
2023/04/18 10:26:00;;;;;;;8.07;1.77;;;19.30;63.20;;;;;;7401921;19;19947;-72
2023/04/18 10:28:47;;;;;;;;;;;19.60;62.30;;;;;;7403223;19;19936;-72
2023/04/18 10:31:15;;;;;;;4.90;1.60;;;19.60;62.60;;;;;;7384478;19;19930;-72
2023/04/18 10:33:47;;;;;;;6.13;1.73;;;19.80;63.10;;;;;;7395188;19;19911;-71
2023/04/18 10:36:19;;;;;;;6.60;2.08;;;20.20;61.80;;;;;;7389252;19;19933;-72
2023/04/18 10:38:51;;;;;;;6.60;2.42;;;20.40;61.70;;;;;;7393955;19;20303;-72
2023/04/18 10:41:18;;;;;;;;;;;19.70;60.70;;;;;;7391990;19;19926;-72
2023/04/18 10:44:08;;;;;;;5.93;1.55;;;19.30;61.90;;;;;;7395164;19;20351;-71
2023/04/18 10:46:57;;;;;;;3.85;1.60;;;19.00;63.00;;;;;;7397416;19;19998;-71
2023/04/18 10:49:25;;;;;;;7.75;2.08;;;19.10;64.10;;;;;;7393371;19;19935;-71
2023/04/18 10:51:57;;;;;;;8.60;1.98;;;19.80;62.90;;;;;;7398905;19;19949;-71
2023/04/18 10:54:45;;;;;;;7.00;2.35;;;20.70;62.10;;;;;;7394517;19;20623;-71
2023/04/18 10:57:12;;;;;;;8.15;2.15;;;21.20;59.90;;;;;;7388319;19;19915;-71
2023/04/18 10:59:43;;;;;;;8.63;2.20;;;20.70;59.90;;;;;;7394323;19;19915;-71
2023/04/18 11:02:25;;;;;;;6.78;2.10;;;20.90;60.40;;;;;;7365478;19;19927;-71
2023/04/18 11:04:54;;;;;;;7.60;2.15;;;21.50;60.00;;;;;;7399888;19;22150;-72
2023/04/18 11:07:34;;;;;;;7.13;2.45;;;20.40;60.70;;;;;;7396760;19;20304;-71
2023/04/18 11:10:00;;;;;;;4.50;1.83;;;19.50;61.60;;;;;;7388829;19;19930;-70
2023/04/18 11:12:37;;;;;;;6.15;1.73;;;19.60;59.40;;;;;;7394184;19;20701;-71
2023/04/18 11:15:16;;;;;;;7.72;1.95;;;19.50;59.80;;;;;;7393005;19;19918;-71
2023/04/18 11:17:42;;;;;;;;;;;19.10;62.70;;;;;;7402002;19;20307;-71
2023/04/18 11:20:11;;;;;;;8.07;2.13;;;19.20;64.60;;;;;;7388516;19;19942;-71
2023/04/18 11:22:57;;;;;;;4.97;2.00;;;20.20;61.10;;;;;;7401519;19;20529;-70
2023/04/18 11:25:29;;;;;;;7.35;2.10;;;19.90;59.20;;;;;;7397197;19;19917;-70
2023/04/18 11:27:58;;;;;;;5.47;1.73;;;19.30;62.40;;;;;;7389132;19;19922;-71
2023/04/18 11:30:24;;;;;;;6.55;2.08;;;19.70;61.30;;;;;;7393289;19;19925;-72
2023/04/18 11:32:50;;;;;;;7.35;2.70;;;19.30;62.10;;;;;;7388468;19;20274;-71
2023/04/18 11:35:17;;;;;;;4.93;1.77;;;18.60;64.30;;;;;;7384990;19;19950;-72
2023/04/18 11:37:48;;;;;;;5.75;2.00;;;18.20;64.30;;;;;;7392458;19;19922;-71
2023/04/18 11:40:15;;;;;;;5.65;2.13;;;18.40;66.00;;;;;;7391453;19;19938;-71
2023/04/18 11:42:41;;;;;;;6.35;2.05;;;18.80;64.90;;;;;;7392837;19;20808;-71
2023/04/18 11:45:12;;;;;;;6.57;2.90;;;19.50;63.00;;;;;;7390395;19;20267;-71
2023/04/18 11:47:41;;;;;;;7.40;1.98;;;20.20;62.60;;;;;;7397448;19;19918;-72
2023/04/18 11:50:08;;;;;;;8.68;3.03;;;20.00;62.60;;;;;;7397649;19;20266;-71
2023/04/18 11:52:35;;;;;;;5.28;1.70;;;18.80;65.00;;;;;;7400163;19;19919;-71
2023/04/18 11:55:23;;;;;;;6.68;2.65;;;20.20;62.20;;;;;;7394630;19;19926;-72
2023/04/18 11:58:00;;;;;;;8.52;2.63;;;20.00;62.80;;;;;;7400145;19;19927;-71
2023/04/18 12:00:37;;;;;;;6.75;2.33;;;21.80;61.80;;;;;;7394129;19;19927;-71
2023/04/18 12:03:14;;;;;;;7.38;2.15;;;21.10;61.00;;;;;;7396259;19;19919;-72
2023/04/18 12:05:41;;;;;;;8.35;2.08;;;20.80;62.30;;;;;;7399098;19;19933;-71
2023/04/18 12:08:14;;;;;;;6.18;2.15;;;19.70;63.60;;;;;;7399360;19;19915;-71
2023/04/18 12:10:51;;;;;;;5.53;2.38;;;19.30;64.10;;;;;;7398079;19;19929;-70
2023/04/18 12:13:25;;;;;;;6.55;2.40;;;20.50;64.50;;;;;;7399085;19;19986;-73
2023/04/18 12:15:52;;;;;;;7.57;2.15;;;19.90;63.90;;;;;;7400038;19;19922;-73
2023/04/18 12:18:20;;;;;;;;;;;19.30;65.60;;;;;;7398067;19;19942;-73
2023/04/18 12:20:52;;;;;;;6.28;1.70;;;21.20;63.40;;;;;;7399146;19;19938;-71
2023/04/18 12:23:45;;;;;;;5.88;2.10;;;20.40;63.60;;;;;;7397353;19;19927;-71
2023/04/18 12:26:12;;;;;;;7.82;2.15;;;21.30;63.00;;;;;;7397968;19;19918;-71
2023/04/18 12:28:38;;;;;;;9.50;3.90;;;21.40;63.20;;;;;;7396493;19;20559;-71
2023/04/18 12:31:07;;;;;;;8.05;2.30;;;21.10;64.10;;;;;;7394077;19;19925;-72
2023/04/18 12:33:34;;;;;;;6.07;2.05;;;20.00;64.40;;;;;;7398500;19;19919;-72
2023/04/18 12:36:07;;;;;;;;;;;20.10;65.50;;;;;;7400374;19;19922;-72
2023/04/18 12:38:34;;;;;;;6.97;3.70;;;20.40;61.80;;;;;;7379273;19;20512;-71
2023/04/18 12:41:00;;;;;;;6.40;2.10;;;20.80;60.40;;;;;;7403741;19;19922;-71
2023/04/18 12:43:25;;;;;;;7.07;2.22;;;19.70;61.60;;;;;;7402494;19;20392;-71
2023/04/18 12:45:51;;;;;;;8.38;2.92;;;20.70;60.90;;;;;;7391541;19;19918;-72
2023/04/18 12:48:19;;;;;;;4.78;2.35;;;20.70;62.00;;;;;;7398026;19;19918;-72
2023/04/18 12:50:45;;;;;;;5.38;2.50;;;21.00;57.20;;;;;;7393127;19;19918;-73